Time;durP1;ratioP1;P1;durP2;ratioP2;P2;SDS_P1;SDS_P2;PMS_P1;PMS_P2;Temp;Humidity;BMP_temperature;BMP_pressure;BME280_temperature;BME280_humidity;BME280_pressure;Samples;Min_cycle;Max_cycle;Signal;HPM_P1;HPM_P2
2023/08/06 00:00:53;;;;;;;7.60;6.20;;;;;;;27.38;46.17;99347.59;107434;1258;69104;-86
2023/08/06 00:03:18;;;;;;;6.80;6.00;;;;;;;27.38;46.29;99355.48;107376;1257;69873;-86
2023/08/06 00:05:44;;;;;;;8.10;6.10;;;;;;;27.38;46.06;99360.10;107397;1258;70305;-86
2023/08/06 00:08:09;;;;;;;7.60;6.20;;;;;;;27.38;46.03;99358.39;107371;1257;69332;-86
2023/08/06 00:10:35;;;;;;;8.80;6.30;;;;;;;27.37;46.45;99359.80;107393;1260;69237;-86
2023/08/06 00:13:00;;;;;;;6.90;6.20;;;;;;;27.37;46.34;99363.05;107295;1257;69225;-85
2023/08/06 00:15:34;;;;;;;6.90;5.90;;;;;;;27.37;46.24;99361.17;107203;1257;69207;-92
2023/08/06 00:18:00;;;;;;;7.50;6.00;;;;;;;27.36;46.34;99350.88;107227;1257;73458;-86
2023/08/06 00:20:25;;;;;;;7.50;6.00;;;;;;;27.36;46.35;99340.91;107314;1268;69341;-86
2023/08/06 00:22:50;;;;;;;7.50;6.00;;;;;;;27.36;46.53;99335.49;107457;1260;69248;-86
2023/08/06 00:25:16;;;;;;;6.50;5.80;;;;;;;27.36;46.65;99333.69;107375;1260;69145;-86
2023/08/06 00:27:41;;;;;;;7.30;6.20;;;;;;;27.36;46.60;99330.69;107377;1262;69152;-86
2023/08/06 00:30:07;;;;;;;7.60;6.70;;;;;;;27.35;46.83;99328.39;107013;1263;69215;-86
2023/08/06 00:32:32;;;;;;;8.20;6.20;;;;;;;27.35;46.75;99326.08;107449;1260;69249;-86
2023/08/06 00:34:58;;;;;;;11.00;6.30;;;;;;;27.35;47.02;99326.38;107400;1257;69107;-86
2023/08/06 00:37:23;;;;;;;7.50;6.60;;;;;;;27.35;46.97;99324.07;107738;1260;69206;-86
2023/08/06 00:39:49;;;;;;;7.60;6.80;;;;;;;27.34;47.10;99322.59;107384;1263;69135;-86
2023/08/06 00:44:48;;;;;;;7.30;6.40;;;;;;;27.35;47.04;99311.16;107734;1258;69139;-85
2023/08/06 00:47:13;;;;;;;6.30;5.80;;;;;;;27.35;47.09;99304.33;107338;1257;69159;-85
2023/08/06 00:49:39;;;;;;;9.80;6.20;;;;;;;27.35;47.34;99305.02;107277;1258;69290;-86
2023/08/06 00:52:05;;;;;;;8.50;6.30;;;;;;;27.35;47.41;99304.79;107172;1257;70073;-86
2023/08/06 00:54:31;;;;;;;7.60;6.30;;;;;;;27.35;47.34;99306.46;107306;1257;69105;-85
2023/08/06 00:56:57;;;;;;;6.20;5.70;;;;;;;27.35;47.29;99302.63;107168;1257;69161;-86
2023/08/06 00:59:23;;;;;;;9.50;6.40;;;;;;;27.34;47.24;99294.35;107154;1258;73397;-85
2023/08/06 01:01:50;;;;;;;7.10;6.40;;;;;;;27.34;47.46;99290.78;107349;1257;69659;-85
2023/08/06 01:04:15;;;;;;;6.90;6.20;;;;;;;27.34;47.52;99280.67;107366;1262;69251;-85
2023/08/06 01:07:10;;;;;;;8.40;5.90;;;;;;;27.34;47.54;99279.02;107336;1257;69187;-85
2023/08/06 01:09:45;;;;;;;7.10;6.30;;;;;;;27.34;47.71;99275.27;107330;1257;69105;-87
2023/08/06 01:12:34;;;;;;;7.20;6.30;;;;;;;27.33;47.79;99267.96;107478;1257;73510;-91
2023/08/06 01:15:30;;;;;;;9.00;6.60;;;;;;;27.32;47.76;99264.36;107370;1257;69098;-86
2023/08/06 01:17:55;;;;;;;7.00;6.30;;;;;;;27.32;47.88;99259.23;107252;1257;69402;-86
2023/08/06 01:20:21;;;;;;;7.70;6.40;;;;;;;27.33;47.74;99253.70;107365;1257;70457;-86
2023/08/06 01:22:46;;;;;;;9.10;6.30;;;;;;;27.32;48.04;99247.83;107251;1257;69212;-86
2023/08/06 01:25:15;;;;;;;7.30;6.60;;;;;;;27.32;48.16;99250.81;107270;1257;69231;-86
2023/08/06 01:27:45;;;;;;;7.30;6.30;;;;;;;27.31;48.09;99252.05;107012;1257;69957;-86
2023/08/06 01:30:27;;;;;;;8.10;6.40;;;;;;;27.31;48.27;99251.63;107353;1257;69119;-92
2023/08/06 01:32:54;;;;;;;8.30;6.60;;;;;;;27.31;48.35;99249.16;107353;1257;69786;-86
2023/08/06 01:35:20;;;;;;;7.80;6.30;;;;;;;27.30;48.35;99235.81;107400;1257;70230;-86
2023/08/06 01:37:46;;;;;;;8.20;6.70;;;;;;;27.31;48.30;99232.39;107139;1257;67116;-86
2023/08/06 01:40:12;;;;;;;7.10;6.30;;;;;;;27.30;48.43;99233.91;107420;1257;69270;-86
2023/08/06 01:42:38;;;;;;;8.70;6.90;;;;;;;27.29;48.61;99241.01;107159;1257;69221;-86
2023/08/06 01:45:13;;;;;;;9.00;6.80;;;;;;;27.30;48.56;99250.96;107097;1257;69395;-92
2023/08/06 01:47:38;;;;;;;8.50;6.70;;;;;;;27.29;48.53;99264.71;107399;1257;66891;-86
2023/08/06 01:50:04;;;;;;;8.00;6.60;;;;;;;27.30;48.93;99272.58;107377;1260;69226;-86
2023/08/06 01:52:29;;;;;;;9.30;6.80;;;;;;;27.30;48.70;99267.02;107378;1257;69234;-86
2023/08/06 01:54:55;;;;;;;8.90;6.80;;;;;;;27.29;48.93;99260.59;107436;1260;69157;-86
2023/08/06 01:57:21;;;;;;;8.80;7.00;;;;;;;27.29;48.85;99259.87;107441;1257;69240;-87
2023/08/06 01:59:46;;;;;;;9.40;7.00;;;;;;;27.29;48.90;99259.99;107393;1257;73520;-86
2023/08/06 02:04:31;;;;;;;7.50;6.70;;;;;;;27.30;48.84;99254.70;103370;1292;601100;-86
2023/08/06 02:06:57;;;;;;;7.50;6.80;;;;;;;27.28;49.07;99257.91;103630;1294;69199;-86
2023/08/06 02:09:22;;;;;;;10.80;6.90;;;;;;;27.28;49.11;99261.16;103683;1295;69216;-86
2023/08/06 02:11:48;;;;;;;7.90;6.70;;;;;;;27.27;49.13;99269.66;103766;1294;69202;-86
2023/08/06 02:14:13;;;;;;;11.30;7.20;;;;;;;27.27;49.26;99263.41;103878;1292;69043;-86
2023/08/06 02:16:39;;;;;;;7.80;7.00;;;;;;;27.27;49.20;99260.67;103738;1291;69188;-86
2023/08/06 02:19:04;;;;;;;7.90;7.10;;;;;;;27.27;49.34;99266.92;103795;1289;240081;-86
2023/08/06 02:21:30;;;;;;;9.90;7.60;;;;;;;27.26;49.40;99261.91;104118;1289;69211;-86
2023/08/06 02:24:03;;;;;;;8.40;7.60;;;;;;;27.26;49.37;99248.54;104070;1289;69250;-92
2023/08/06 02:26:29;;;;;;;12.20;7.50;;;;;;;27.25;49.41;99252.45;103975;1288;69119;-86
2023/08/06 02:28:54;;;;;;;8.10;7.20;;;;;;;27.25;49.40;99254.73;103858;1289;69347;-86
2023/08/06 02:31:20;;;;;;;8.60;7.60;;;;;;;27.25;49.71;99258.13;104093;1289;69220;-86
2023/08/06 02:33:45;;;;;;;11.20;7.40;;;;;;;27.25;49.65;99258.20;104101;1292;69249;-86
2023/08/06 02:36:11;;;;;;;8.70;7.40;;;;;;;27.25;49.67;99259.38;104071;1288;69356;-86
2023/08/06 02:38:36;;;;;;;8.90;7.50;;;;;;;27.24;49.72;99255.05;103897;1288;69246;-86
2023/08/06 02:41:03;;;;;;;13.60;8.00;;;;;;;27.24;49.87;99256.86;103988;1288;67087;-86
2023/08/06 02:43:29;;;;;;;10.70;7.70;;;;;;;27.24;49.91;99257.70;104039;1288;69041;-86
2023/08/06 02:45:58;;;;;;;8.00;7.30;;;;;;;27.24;50.02;99251.89;103993;1292;69333;-85
2023/08/06 02:48:23;;;;;;;9.20;7.40;;;;;;;27.23;50.02;99253.11;103980;1289;69125;-86
2023/08/06 02:51:05;;;;;;;8.40;7.60;;;;;;;27.23;50.18;99249.83;104038;1291;70088;-92
2023/08/06 02:53:31;;;;;;;8.80;8.00;;;;;;;27.23;50.18;99246.54;104093;1289;69124;-86
2023/08/06 02:55:57;;;;;;;9.20;7.60;;;;;;;27.22;50.19;99244.38;104211;1288;69284;-86
2023/08/06 02:58:22;;;;;;;10.40;7.50;;;;;;;27.23;50.08;99234.35;104128;1289;69259;-86
2023/08/06 03:01:02;;;;;;;9.10;7.90;;;;;;;27.22;50.08;99239.13;104011;1290;69205;-86
2023/08/06 03:03:29;;;;;;;9.30;7.40;;;;;;;27.22;50.11;99243.35;104097;1289;70389;-86
2023/08/06 03:05:55;;;;;;;8.30;7.50;;;;;;;27.22;50.12;99245.52;104135;1288;69131;-88
2023/08/06 03:08:22;;;;;;;9.60;7.40;;;;;;;27.22;50.26;99247.21;104000;1289;69149;-86
2023/08/06 03:10:49;;;;;;;8.40;7.50;;;;;;;27.22;50.28;99248.73;104044;1288;69084;-86
2023/08/06 03:13:15;;;;;;;11.00;8.00;;;;;;;27.22;50.32;99250.59;103917;1288;69170;-86
2023/08/06 03:15:40;;;;;;;8.40;7.50;;;;;;;27.22;50.41;99255.67;104041;1293;69389;-86
2023/08/06 03:18:06;;;;;;;8.20;7.40;;;;;;;27.22;50.33;99260.63;104109;1289;69197;-86
2023/08/06 03:20:34;;;;;;;9.30;7.80;;;;;;;27.22;50.40;99253.39;103971;1292;69411;-86
2023/08/06 03:23:00;;;;;;;10.30;8.00;;;;;;;27.21;50.53;99251.25;104012;1289;69314;-86
2023/08/06 03:25:25;;;;;;;10.10;8.00;;;;;;;27.21;50.57;99253.38;104064;1288;69217;-86
2023/08/06 03:27:50;;;;;;;12.30;7.90;;;;;;;27.21;50.65;99250.23;104039;1289;69339;-86
2023/08/06 03:30:16;;;;;;;10.40;7.90;;;;;;;27.21;50.47;99244.40;104164;1288;69250;-86
2023/08/06 03:32:49;;;;;;;8.40;7.60;;;;;;;27.20;50.63;99234.56;104078;1287;70738;-91
2023/08/06 03:35:14;;;;;;;10.20;8.20;;;;;;;27.20;50.67;99234.11;104017;1289;69179;-86
2023/08/06 03:37:40;;;;;;;11.20;7.70;;;;;;;27.20;50.60;99235.41;104098;1289;69413;-86
2023/08/06 03:40:06;;;;;;;10.10;8.20;;;;;;;27.20;50.80;99231.39;104069;1289;69330;-86
2023/08/06 03:42:31;;;;;;;8.80;7.90;;;;;;;27.20;50.70;99228.13;104175;1288;69195;-86
2023/08/06 03:44:57;;;;;;;10.10;8.30;;;;;;;27.20;50.77;99225.02;104033;1288;69310;-86
2023/08/06 03:47:22;;;;;;;10.70;8.20;;;;;;;27.19;50.83;99224.09;104029;1288;69093;-86
2023/08/06 03:49:49;;;;;;;10.80;8.10;;;;;;;27.19;50.87;99223.29;104132;1288;69237;-86
2023/08/06 03:52:15;;;;;;;10.00;8.30;;;;;;;27.19;50.80;99225.38;103982;1291;69072;-86
2023/08/06 03:54:40;;;;;;;9.90;8.20;;;;;;;27.19;50.94;99227.38;103984;1288;69244;-86
2023/08/06 03:57:06;;;;;;;9.20;8.20;;;;;;;27.19;50.91;99229.89;104020;1289;69253;-86
2023/08/06 03:59:51;;;;;;;9.40;8.40;;;;;;;27.18;50.99;99228.45;104071;1291;67333;-91
2023/08/06 04:02:17;;;;;;;8.50;7.70;;;;;;;27.18;51.02;99229.26;103987;1288;73744;-86
2023/08/06 04:04:42;;;;;;;9.30;8.30;;;;;;;27.17;51.08;99224.95;104146;1288;69266;-86
2023/08/06 04:07:08;;;;;;;9.60;7.80;;;;;;;27.18;51.13;99232.66;104163;1288;69295;-86
2023/08/06 04:09:33;;;;;;;9.30;8.00;;;;;;;27.18;51.17;99233.23;104089;1289;69281;-86
2023/08/06 04:12:01;;;;;;;8.60;7.80;;;;;;;27.17;51.19;99229.23;104168;1289;69138;-86
2023/08/06 04:17:09;;;;;;;8.90;8.00;;;;;;;27.17;51.27;99228.20;103849;1294;69132;-87
2023/08/06 04:19:35;;;;;;;13.10;8.30;;;;;;;27.16;51.25;99222.75;103910;1291;69397;-87
2023/08/06 04:22:00;;;;;;;13.10;8.50;;;;;;;27.17;51.30;99224.80;103925;1292;69205;-87
2023/08/06 04:24:26;;;;;;;12.90;8.30;;;;;;;27.16;51.29;99227.45;104013;1291;70439;-87
2023/08/06 04:26:51;;;;;;;11.00;8.00;;;;;;;27.16;51.35;99230.41;103954;1289;69198;-87
2023/08/06 04:29:17;;;;;;;9.40;8.20;;;;;;;27.16;51.42;99237.34;103783;1289;69240;-87
2023/08/06 04:31:42;;;;;;;14.10;8.80;;;;;;;27.15;51.44;99231.89;103917;1290;69181;-87
2023/08/06 04:34:09;;;;;;;9.00;8.00;;;;;;;27.15;51.54;99227.93;103888;1292;68502;-87
2023/08/06 04:36:34;;;;;;;10.80;8.70;;;;;;;27.15;51.53;99229.05;103856;1292;70891;-87
2023/08/06 04:39:00;;;;;;;9.20;8.30;;;;;;;27.15;51.47;99222.55;103933;1294;69127;-87
2023/08/06 04:41:41;;;;;;;12.50;8.80;;;;;;;27.14;51.43;99223.50;103873;1291;69011;-92
2023/08/06 04:44:06;;;;;;;9.70;8.10;;;;;;;27.14;51.59;99220.63;103990;1292;74506;-87
2023/08/06 04:46:32;;;;;;;10.20;9.00;;;;;;;27.14;51.55;99219.06;104107;1293;69288;-87
2023/08/06 04:48:57;;;;;;;13.60;9.30;;;;;;;27.15;51.60;99225.05;103873;1292;69168;-86
2023/08/06 04:51:23;;;;;;;9.60;8.50;;;;;;;27.15;51.68;99221.79;103722;1294;69283;-85
2023/08/06 04:53:48;;;;;;;9.30;8.20;;;;;;;27.15;51.70;99218.84;103927;1290;69307;-85
2023/08/06 04:56:14;;;;;;;12.90;9.10;;;;;;;27.14;51.82;99216.08;103629;1292;69946;-86
2023/08/06 04:58:39;;;;;;;10.50;9.00;;;;;;;27.14;51.79;99217.78;103827;1290;70432;-85
2023/08/06 05:01:05;;;;;;;10.40;9.20;;;;;;;27.15;51.74;99215.24;103680;1292;70487;-85
2023/08/06 05:03:30;;;;;;;14.70;8.90;;;;;;;27.14;51.81;99216.92;103887;1289;69239;-85
2023/08/06 05:05:56;;;;;;;9.60;8.20;;;;;;;27.14;51.86;99220.44;103844;1289;69201;-86
2023/08/06 05:08:29;;;;;;;12.80;9.30;;;;;;;27.13;51.86;99221.39;103763;1292;70335;-91
2023/08/06 05:10:55;;;;;;;9.70;8.80;;;;;;;27.13;51.71;99229.08;103675;1291;69204;-85
2023/08/06 05:13:20;;;;;;;13.60;8.80;;;;;;;27.14;51.83;99226.56;103711;1292;69272;-85
2023/08/06 05:15:46;;;;;;;10.20;9.10;;;;;;;27.14;51.79;99220.14;103655;1292;69295;-85
2023/08/06 05:18:12;;;;;;;15.70;8.80;;;;;;;27.13;51.83;99210.73;103701;1292;69701;-85
2023/08/06 05:20:41;;;;;;;11.90;8.90;;;;;;;27.13;51.98;99214.42;103691;1292;69884;-85
2023/08/06 05:23:06;;;;;;;12.50;9.20;;;;;;;27.13;51.97;99214.98;103657;1292;69081;-85
2023/08/06 05:25:34;;;;;;;11.50;8.90;;;;;;;27.13;51.98;99215.86;103653;1297;69320;-85
2023/08/06 05:28:01;;;;;;;12.10;9.00;;;;;;;27.13;51.96;99210.60;103694;1291;69936;-86
2023/08/06 05:30:27;;;;;;;10.50;8.70;;;;;;;27.12;52.05;99205.01;103862;1290;69141;-85
2023/08/06 05:32:52;;;;;;;11.90;9.50;;;;;;;27.13;51.97;99193.95;103885;1292;69351;-85
2023/08/06 05:35:18;;;;;;;9.90;8.70;;;;;;;27.12;51.96;99194.79;103891;1295;69324;-86
2023/08/06 05:37:43;;;;;;;10.00;8.50;;;;;;;27.13;52.03;99193.69;103836;1291;69269;-86
2023/08/06 05:40:09;;;;;;;9.10;8.10;;;;;;;27.12;52.06;99183.95;103883;1293;69429;-85
2023/08/06 05:42:34;;;;;;;9.30;8.40;;;;;;;27.13;51.97;99185.72;103830;1294;69262;-86
2023/08/06 05:45:00;;;;;;;13.10;9.30;;;;;;;27.13;51.95;99183.34;103886;1291;69153;-86
2023/08/06 05:47:25;;;;;;;11.30;9.20;;;;;;;27.13;52.02;99182.14;103870;1291;69281;-86
2023/08/06 05:49:51;;;;;;;9.80;8.70;;;;;;;27.13;52.07;99181.71;103791;1292;69266;-85
2023/08/06 05:52:16;;;;;;;13.20;8.70;;;;;;;27.13;51.96;99181.61;103968;1292;69364;-85
2023/08/06 05:54:42;;;;;;;12.30;9.00;;;;;;;27.13;51.90;99184.77;103881;1289;69286;-85
2023/08/06 05:57:07;;;;;;;10.10;9.00;;;;;;;27.13;52.02;99183.48;103906;1294;69285;-86
2023/08/06 05:59:33;;;;;;;10.40;9.20;;;;;;;27.14;52.13;99183.64;103935;1292;67381;-86
2023/08/06 06:01:58;;;;;;;9.50;8.50;;;;;;;27.14;52.05;99178.55;103913;1289;69295;-85
2023/08/06 06:04:25;;;;;;;10.30;8.30;;;;;;;27.14;52.11;99170.05;103941;1292;69234;-85
2023/08/06 06:06:50;;;;;;;11.10;9.00;;;;;;;27.14;51.95;99169.81;103838;1292;73678;-85
2023/08/06 06:09:16;;;;;;;10.50;8.90;;;;;;;27.15;52.21;99172.69;103901;1289;69173;-86
2023/08/06 06:11:41;;;;;;;12.00;8.80;;;;;;;27.15;52.11;99172.98;103921;1290;69262;-86
2023/08/06 06:14:15;;;;;;;10.90;9.00;;;;;;;27.16;52.09;99167.75;103857;1290;69284;-92
2023/08/06 06:16:40;;;;;;;10.80;8.80;;;;;;;27.16;51.97;99172.03;103795;1289;69155;-86
2023/08/06 06:19:05;;;;;;;14.50;9.50;;;;;;;27.16;52.03;99171.94;103900;1293;70155;-86
2023/08/06 06:21:31;;;;;;;10.80;8.50;;;;;;;27.17;52.00;99174.79;103872;1294;69824;-86
2023/08/06 06:23:56;;;;;;;9.90;8.80;;;;;;;27.17;52.09;99169.85;103926;1290;69196;-86
2023/08/06 06:26:22;;;;;;;10.30;9.00;;;;;;;27.18;52.02;99168.18;104060;1289;69194;-86
2023/08/06 06:28:47;;;;;;;9.90;8.40;;;;;;;27.18;52.08;99166.92;103807;1294;69189;-86
2023/08/06 06:31:13;;;;;;;9.10;8.20;;;;;;;27.18;51.89;99168.60;103902;1291;69162;-86
2023/08/06 06:33:38;;;;;;;9.80;8.80;;;;;;;27.18;51.90;99164.10;103893;1294;69199;-86
2023/08/06 06:36:04;;;;;;;9.40;8.50;;;;;;;27.19;51.94;99164.29;104002;1291;69147;-86
2023/08/06 06:38:29;;;;;;;10.50;8.60;;;;;;;27.18;52.02;99163.67;104006;1292;73583;-86
2023/08/06 06:43:39;;;;;;;9.30;8.10;;;;;;;27.19;51.99;99157.26;103626;1297;69266;-86
2023/08/06 06:46:05;;;;;;;9.40;8.40;;;;;;;27.20;52.07;99158.40;103626;1292;69153;-86
2023/08/06 06:48:32;;;;;;;11.40;8.50;;;;;;;27.20;51.84;99157.44;103582;1297;69268;-86
2023/08/06 06:50:57;;;;;;;9.80;8.10;;;;;;;27.20;51.96;99160.70;103601;1307;69393;-86
2023/08/06 06:53:27;;;;;;;9.70;8.30;;;;;;;27.20;51.88;99166.40;103664;1295;69139;-86
2023/08/06 06:58:26;;;;;;;9.70;8.60;;;;;;;27.21;51.76;99161.89;104153;1288;69232;-87
2023/08/06 07:00:51;;;;;;;8.90;7.90;;;;;;;27.22;51.74;99162.85;104168;1289;69209;-87
2023/08/06 07:03:18;;;;;;;9.20;8.30;;;;;;;27.22;51.71;99162.44;104005;1294;69376;-87
2023/08/06 07:05:44;;;;;;;10.00;8.00;;;;;;;27.23;51.57;99159.77;104160;1289;66981;-87
2023/08/06 07:08:09;;;;;;;9.20;8.00;;;;;;;27.24;51.73;99161.13;104060;1288;71045;-87
2023/08/06 07:10:35;;;;;;;9.50;8.50;;;;;;;27.24;51.79;99165.10;104047;1291;69310;-86
2023/08/06 07:13:00;;;;;;;9.50;8.30;;;;;;;27.23;51.64;99168.79;104390;1285;74188;-86
2023/08/06 07:15:26;;;;;;;9.30;8.20;;;;;;;27.25;51.63;99166.79;104326;1285;69544;-86
2023/08/06 07:17:51;;;;;;;9.10;8.30;;;;;;;27.25;51.57;99162.20;104333;1286;69236;-86
2023/08/06 07:20:17;;;;;;;9.50;8.60;;;;;;;27.26;51.67;99166.73;104332;1286;69262;-86
2023/08/06 07:22:44;;;;;;;10.20;8.70;;;;;;;27.27;51.42;99165.25;104260;1285;69275;-86
2023/08/06 07:25:09;;;;;;;9.60;8.70;;;;;;;27.27;51.45;99164.54;104271;1285;69257;-86
2023/08/06 07:27:35;;;;;;;8.90;8.00;;;;;;;27.28;51.59;99171.95;104197;1288;69156;-85
2023/08/06 07:30:00;;;;;;;8.80;8.00;;;;;;;27.27;51.47;99176.73;104263;1291;69256;-86
2023/08/06 07:32:27;;;;;;;9.60;7.90;;;;;;;27.28;51.36;99180.77;104265;1288;69327;-86
2023/08/06 07:35:00;;;;;;;8.40;7.60;;;;;;;27.27;51.31;99179.87;104180;1288;69403;-92
2023/08/06 07:37:28;;;;;;;8.90;8.00;;;;;;;27.27;51.27;99178.02;104262;1287;69110;-86
2023/08/06 07:39:54;;;;;;;9.00;8.00;;;;;;;27.26;51.32;99180.83;104313;1284;69228;-86
2023/08/06 07:42:20;;;;;;;9.00;8.10;;;;;;;27.27;51.29;99181.57;104333;1285;69238;-86
2023/08/06 07:44:56;;;;;;;9.00;8.10;;;;;;;27.27;51.16;99183.52;104527;1286;69199;-86
2023/08/06 07:47:21;;;;;;;9.00;8.20;;;;;;;27.27;51.23;99185.52;104198;1289;73581;-86
2023/08/06 07:49:54;;;;;;;9.10;8.30;;;;;;;27.27;51.18;99181.27;104285;1285;69265;-91
2023/08/06 07:52:20;;;;;;;8.60;7.80;;;;;;;27.27;51.17;99179.04;104259;1286;69319;-86
2023/08/06 07:54:45;;;;;;;8.30;7.60;;;;;;;27.28;51.23;99179.23;104425;1289;69186;-86
2023/08/06 07:57:11;;;;;;;8.90;8.00;;;;;;;27.28;51.14;99171.30;104339;1285;70428;-86
2023/08/06 07:59:36;;;;;;;8.50;7.80;;;;;;;27.29;51.31;99175.34;104396;1291;69192;-86
2023/08/06 08:02:02;;;;;;;8.90;8.10;;;;;;;27.29;51.15;99179.89;104320;1287;69406;-86
2023/08/06 08:04:27;;;;;;;9.10;8.20;;;;;;;27.29;51.13;99180.61;104244;1288;69271;-86
2023/08/06 08:06:53;;;;;;;8.30;7.50;;;;;;;27.29;50.99;99185.31;104359;1285;69198;-86
2023/08/06 08:09:18;;;;;;;8.80;7.90;;;;;;;27.29;51.07;99184.16;104290;1288;69259;-86
2023/08/06 08:11:44;;;;;;;8.30;7.60;;;;;;;27.29;51.05;99178.94;104361;1286;69069;-86
2023/08/06 08:14:10;;;;;;;8.80;7.90;;;;;;;27.29;51.00;99171.82;104375;1287;69082;-86
2023/08/06 08:19:19;;;;;;;8.40;7.50;;;;;;;27.29;50.94;99164.13;104309;1285;74351;-86
2023/08/06 08:21:44;;;;;;;8.20;7.40;;;;;;;27.30;50.97;99166.32;104382;1285;69157;-85
2023/08/06 08:24:10;;;;;;;8.10;7.40;;;;;;;27.31;50.85;99159.75;104358;1285;69724;-85
2023/08/06 08:26:35;;;;;;;8.50;7.60;;;;;;;27.32;50.76;99159.36;104328;1285;69266;-86
2023/08/06 08:29:01;;;;;;;8.50;7.70;;;;;;;27.32;50.84;99155.53;104418;1289;69145;-86
2023/08/06 08:31:28;;;;;;;8.90;8.00;;;;;;;27.33;50.80;99156.17;104295;1286;69220;-86
2023/08/06 08:33:54;;;;;;;8.60;7.70;;;;;;;27.33;50.80;99155.63;104389;1285;69717;-86
2023/08/06 08:36:19;;;;;;;9.10;8.10;;;;;;;27.34;50.89;99162.90;104169;1285;69197;-86
2023/08/06 08:38:45;;;;;;;8.60;7.80;;;;;;;27.33;50.74;99164.98;104631;1287;69265;-86
2023/08/06 08:41:11;;;;;;;8.50;7.70;;;;;;;27.34;50.78;99173.83;104884;1285;70415;-86
2023/08/06 08:43:44;;;;;;;8.70;7.90;;;;;;;27.34;50.79;99170.42;104471;1285;69469;-92
2023/08/06 08:46:10;;;;;;;9.60;8.70;;;;;;;27.34;50.82;99171.86;104272;1289;69625;-86
2023/08/06 08:48:35;;;;;;;8.70;7.90;;;;;;;27.34;50.74;99169.63;104383;1285;68314;-86
2023/08/06 08:51:00;;;;;;;9.00;8.10;;;;;;;27.34;50.77;99168.64;104212;1285;69268;-86
2023/08/06 08:53:26;;;;;;;8.50;7.70;;;;;;;27.35;50.72;99168.59;104188;1291;69325;-86
2023/08/06 08:55:51;;;;;;;8.50;7.60;;;;;;;27.36;50.62;99170.19;104209;1285;69262;-86
2023/08/06 08:58:17;;;;;;;8.90;8.10;;;;;;;27.37;50.56;99170.80;104092;1286;69281;-86
2023/08/06 09:00:43;;;;;;;8.40;7.60;;;;;;;27.37;50.70;99187.91;104292;1285;69272;-86
2023/08/06 09:03:08;;;;;;;9.40;8.50;;;;;;;27.38;50.64;99194.20;104073;1291;69615;-86
2023/08/06 09:05:33;;;;;;;9.00;7.90;;;;;;;27.39;50.57;99193.73;104210;1291;69270;-86
2023/08/06 09:08:03;;;;;;;8.50;7.70;;;;;;;27.40;50.50;99195.19;104002;1285;69160;-86
2023/08/06 09:10:40;;;;;;;8.80;7.90;;;;;;;27.40;50.51;99206.63;104155;1288;73645;-91
2023/08/06 09:13:06;;;;;;;9.20;8.40;;;;;;;27.40;50.54;99218.55;104237;1285;69068;-86
2023/08/06 09:15:31;;;;;;;9.50;8.20;;;;;;;27.40;50.57;99221.97;104294;1289;69704;-86
2023/08/06 09:17:57;;;;;;;8.60;7.70;;;;;;;27.40;50.53;99222.39;103993;1286;69253;-85
2023/08/06 09:20:22;;;;;;;8.60;7.60;;;;;;;27.40;50.45;99219.67;104320;1289;69368;-86
2023/08/06 09:22:48;;;;;;;8.30;7.50;;;;;;;27.39;50.52;99213.23;104310;1286;69274;-87
2023/08/06 09:27:57;;;;;;;8.00;7.30;;;;;;;27.39;50.29;99215.91;104402;1285;70387;-86
2023/08/06 09:30:33;;;;;;;9.20;7.90;;;;;;;27.39;50.33;99207.96;104140;1291;69242;-86
2023/08/06 09:32:58;;;;;;;8.10;7.40;;;;;;;27.39;50.31;99220.31;104267;1289;73692;-86
2023/08/06 09:35:24;;;;;;;8.50;7.60;;;;;;;27.40;50.40;99237.25;104285;1285;69273;-86
2023/08/06 09:37:49;;;;;;;8.40;7.50;;;;;;;27.39;50.31;99248.54;104445;1285;69249;-86
2023/08/06 09:42:58;;;;;;;7.90;7.20;;;;;;;27.38;50.25;99265.70;104243;1285;69088;-86
2023/08/06 09:45:32;;;;;;;9.40;6.90;;;;;;;27.38;50.28;99259.72;104041;1285;69227;-86
2023/08/06 09:47:58;;;;;;;7.90;7.10;;;;;;;27.38;50.16;99244.61;104150;1285;69265;-86
2023/08/06 09:50:31;;;;;;;7.20;6.50;;;;;;;27.38;50.16;99235.11;104090;1291;70372;-86
2023/08/06 09:52:57;;;;;;;8.70;6.50;;;;;;;27.38;50.11;99236.81;104236;1286;67948;-86
2023/08/06 09:55:32;;;;;;;7.60;6.70;;;;;;;27.38;50.02;99236.27;104223;1288;69132;-92
2023/08/06 09:57:57;;;;;;;6.90;6.20;;;;;;;27.38;50.06;99234.13;104278;1285;73460;-86
2023/08/06 10:00:23;;;;;;;7.00;6.30;;;;;;;27.39;50.00;99224.94;104253;1285;67296;-86
2023/08/06 10:02:49;;;;;;;6.50;5.90;;;;;;;27.39;49.96;99211.19;104147;1287;69326;-86
2023/08/06 10:05:15;;;;;;;6.90;5.70;;;;;;;27.38;49.95;99212.30;104260;1287;69247;-86
2023/08/06 10:07:40;;;;;;;6.40;5.50;;;;;;;27.39;49.81;99202.78;104197;1290;69282;-86
2023/08/06 10:10:06;;;;;;;6.60;6.00;;;;;;;27.38;49.83;99202.38;103868;1287;67921;-86
2023/08/06 10:12:34;;;;;;;6.10;5.50;;;;;;;27.39;49.93;99195.70;104049;1287;69132;-86
2023/08/06 10:15:01;;;;;;;7.20;6.10;;;;;;;27.39;49.69;99190.32;104346;1287;70301;-86
2023/08/06 10:17:26;;;;;;;7.40;5.80;;;;;;;27.39;49.71;99180.84;104346;1285;69163;-86
2023/08/06 10:19:54;;;;;;;5.90;5.30;;;;;;;27.40;49.59;99168.52;104119;1285;69210;-86
2023/08/06 10:22:21;;;;;;;5.50;5.00;;;;;;;27.40;49.48;99165.88;104244;1286;68995;-92
2023/08/06 10:24:51;;;;;;;6.90;5.00;;;;;;;27.40;49.47;99159.05;104126;1286;69155;-86
2023/08/06 10:27:32;;;;;;;5.90;5.30;;;;;;;27.40;49.53;99152.92;104228;1287;69255;-86
2023/08/06 10:30:26;;;;;;;5.40;4.90;;;;;;;27.40;49.35;99152.48;104192;1288;69116;-86
2023/08/06 10:32:53;;;;;;;5.50;5.00;;;;;;;27.39;49.20;99153.73;104194;1285;74591;-86
2023/08/06 10:35:40;;;;;;;5.10;4.70;;;;;;;27.39;49.30;99151.88;104225;1290;69236;-86
2023/08/06 10:38:09;;;;;;;5.20;4.30;;;;;;;27.39;49.29;99153.25;104173;1286;69212;-86
2023/08/06 10:40:36;;;;;;;5.30;4.50;;;;;;;27.39;49.14;99145.89;104265;1290;69644;-86
2023/08/06 10:45:49;;;;;;;5.70;4.90;;;;;;;27.38;49.17;99121.23;104298;1285;73449;-85
2023/08/06 10:48:18;;;;;;;6.30;4.70;;;;;;;27.39;48.96;99123.40;104181;1285;69285;-86
2023/08/06 10:50:44;;;;;;;5.50;4.50;;;;;;;27.38;48.98;99143.97;104117;1288;69155;-86
2023/08/06 10:53:11;;;;;;;4.70;4.20;;;;;;;27.39;48.95;99163.89;104195;1285;69278;-86
2023/08/06 10:55:38;;;;;;;4.60;4.20;;;;;;;27.38;48.92;99180.89;104077;1285;69208;-86
2023/08/06 11:00:37;;;;;;;8.40;4.30;;;;;;;27.38;48.90;99183.55;104450;1292;69238;-86
2023/08/06 11:03:03;;;;;;;4.90;4.40;;;;;;;27.38;48.83;99183.25;104329;1285;69289;-86
2023/08/06 11:05:28;;;;;;;4.80;4.30;;;;;;;27.37;48.62;99195.98;104323;1289;69233;-85
2023/08/06 11:07:54;;;;;;;6.10;4.20;;;;;;;27.38;48.58;99202.98;104331;1286;69286;-86
2023/08/06 11:10:19;;;;;;;5.50;4.30;;;;;;;27.37;48.44;99192.47;104385;1286;69203;-86
2023/08/06 11:12:45;;;;;;;5.00;4.00;;;;;;;27.37;48.57;99175.23;104357;1285;69268;-86
2023/08/06 11:15:11;;;;;;;5.20;4.60;;;;;;;27.36;48.59;99164.56;104356;1285;69239;-86
2023/08/06 11:17:37;;;;;;;4.90;4.40;;;;;;;27.35;48.65;99159.23;104427;1290;69313;-85
2023/08/06 11:20:03;;;;;;;5.10;4.30;;;;;;;27.35;48.58;99160.61;104189;1286;69272;-86
2023/08/06 11:22:29;;;;;;;4.90;4.50;;;;;;;27.35;48.48;99160.75;104387;1290;69186;-86
2023/08/06 11:27:34;;;;;;;4.40;4.00;;;;;;;27.34;48.45;99152.59;104299;1286;69208;-86
2023/08/06 11:30:00;;;;;;;5.30;4.10;;;;;;;27.34;48.33;99153.39;104332;1291;69358;-85
2023/08/06 11:32:27;;;;;;;5.90;4.70;;;;;;;27.34;48.26;99146.87;104349;1286;69191;-86
2023/08/06 11:34:54;;;;;;;4.90;4.20;;;;;;;27.34;48.28;99141.30;104344;1285;69189;-86
2023/08/06 11:37:22;;;;;;;4.30;3.90;;;;;;;27.33;48.31;99161.70;104363;1286;69183;-86
2023/08/06 11:39:49;;;;;;;4.50;4.10;;;;;;;27.33;48.23;99181.01;104379;1289;69284;-85
2023/08/06 11:42:14;;;;;;;4.80;4.30;;;;;;;27.33;48.28;99175.62;104406;1285;69333;-86
2023/08/06 11:44:44;;;;;;;4.50;4.10;;;;;;;27.33;48.20;99149.62;104396;1285;68657;-86
2023/08/06 11:47:15;;;;;;;4.30;3.90;;;;;;;27.33;48.23;99140.12;104396;1285;69250;-86
2023/08/06 11:49:47;;;;;;;;;;;;;;;27.32;48.09;99146.33;104340;1286;70418;-86
2023/08/06 11:52:19;;;;;;;5.10;4.30;;;;;;;27.29;48.07;99132.33;104339;1286;69266;-85